createdAt,value
2022-11-10T00:01:09.002Z,96469.13
2022-11-10T00:03:38.556Z,96469.44
2022-11-10T00:06:07.372Z,96472.78
2022-11-10T00:08:34.969Z,96474.50
2022-11-10T00:11:06.760Z,96478.69
2022-11-10T00:13:57.531Z,96475.84
2022-11-10T00:16:42.840Z,96485.34
2022-11-10T00:19:10.821Z,96486.50
2022-11-10T00:21:38.761Z,96483.81
2022-11-10T00:24:06.634Z,96493.44
2022-11-10T00:26:34.156Z,96490.13
2022-11-10T00:29:03.040Z,96490.41
2022-11-10T00:31:30.571Z,96498.91
2022-11-10T00:33:59.482Z,96490.63
2022-11-10T00:36:27.054Z,96494.66
2022-11-10T00:38:54.603Z,96505.44
2022-11-10T00:41:22.332Z,96504.06
2022-11-10T00:43:50.587Z,96507.56
2022-11-10T00:46:19.576Z,96508.09
2022-11-10T00:48:47.091Z,96514.09
2022-11-10T00:51:21.502Z,96518.75
2022-11-10T00:53:49.249Z,96520.06
2022-11-10T00:56:16.853Z,96526.72
2022-11-10T00:58:44.877Z,96526.38
2022-11-10T01:01:12.975Z,96529.91
2022-11-10T01:03:42.244Z,96543.88
2022-11-10T01:06:13.538Z,96545.38
2022-11-10T01:08:42.053Z,96546.38
2022-11-10T01:11:11.879Z,96550.69
2022-11-10T01:13:39.612Z,96536.53
2022-11-10T01:16:08.459Z,96543.34
2022-11-10T01:18:36.780Z,96549.00
2022-11-10T01:21:06.463Z,96553.34
2022-11-10T01:23:34.185Z,96557.31
2022-11-10T01:26:03.230Z,96560.34
2022-11-10T01:28:31.191Z,96568.97
2022-11-10T01:30:59.060Z,96570.75
2022-11-10T01:33:27.915Z,96581.94
2022-11-10T01:35:55.718Z,96584.72
2022-11-10T01:38:27.478Z,96584.25
2022-11-10T01:40:55.162Z,96581.44
2022-11-10T01:43:23.472Z,96591.84
2022-11-10T01:45:53.746Z,96587.31
2022-11-10T01:48:29.673Z,96593.59
2022-11-10T01:51:01.939Z,96582.00
2022-11-10T01:53:33.550Z,96583.41
2022-11-10T01:56:01.497Z,96592.22
2022-11-10T01:58:33.662Z,96592.69
2022-11-10T02:01:01.244Z,96591.22
2022-11-10T02:03:34.355Z,96604.13
2022-11-10T02:06:02.568Z,96603.53
2022-11-10T02:08:31.813Z,96606.41
2022-11-10T02:10:59.338Z,96618.31
2022-11-10T02:13:27.152Z,96609.94
2022-11-10T02:15:54.683Z,96609.66
2022-11-10T02:18:22.194Z,96602.28
2022-11-10T02:20:51.090Z,96611.56
2022-11-10T02:23:49.531Z,96612.94
2022-11-10T02:26:20.514Z,96610.69
2022-11-10T02:28:48.087Z,96624.22
2022-11-10T02:31:15.624Z,96632.88
2022-11-10T02:33:44.067Z,96636.44
2022-11-10T02:36:13.167Z,96650.41
2022-11-10T02:38:41.131Z,96652.25
2022-11-10T02:41:08.647Z,96645.56
2022-11-10T02:43:37.623Z,96637.44
2022-11-10T02:46:05.276Z,96641.13
2022-11-10T02:48:33.647Z,96651.25
2022-11-10T02:51:01.208Z,96649.09
2022-11-10T02:53:30.104Z,96648.88
2022-11-10T02:55:57.622Z,96657.97
2022-11-10T02:58:25.114Z,96661.34
2022-11-10T03:00:52.704Z,96662.47
2022-11-10T03:03:20.573Z,96663.22
2022-11-10T03:05:48.338Z,96675.97
2022-11-10T03:08:15.957Z,96675.94
2022-11-10T03:10:44.831Z,96662.94
2022-11-10T03:13:12.335Z,96667.97
2022-11-10T03:15:39.858Z,96665.06
2022-11-10T03:18:07.586Z,96683.31
2022-11-10T03:20:35.145Z,96683.78
2022-11-10T03:23:03.719Z,96673.44
2022-11-10T03:25:31.345Z,96687.25
2022-11-10T03:28:00.244Z,96681.94
2022-11-10T03:30:28.103Z,96688.31
2022-11-10T03:32:55.637Z,96681.81
2022-11-10T03:35:23.226Z,96681.84
2022-11-10T03:37:50.743Z,96677.69
2022-11-10T03:40:18.390Z,96676.03
2022-11-10T03:42:47.028Z,96682.88
2022-11-10T03:45:16.364Z,96693.16
2022-11-10T03:47:47.236Z,96708.28
2022-11-10T03:50:15.803Z,96717.88
2022-11-10T03:52:44.796Z,96712.06
2022-11-10T03:55:13.630Z,96723.88
2022-11-10T03:57:41.135Z,96722.53
2022-11-10T04:00:10.501Z,96723.84
2022-11-10T04:02:40.272Z,96736.97
2022-11-10T04:05:26.221Z,96734.63
2022-11-10T04:08:18.572Z,96744.66
2022-11-10T04:10:46.268Z,96739.63
2022-11-10T04:13:31.677Z,96749.91
2022-11-10T04:15:59.248Z,96756.16
2022-11-10T04:18:29.590Z,96754.56
2022-11-10T04:20:59.228Z,96752.28
2022-11-10T04:23:28.881Z,96755.41
2022-11-10T04:26:16.499Z,96758.91
2022-11-10T04:28:44.900Z,96774.94
2022-11-10T04:31:13.391Z,96783.00
2022-11-10T04:33:43.142Z,96783.53
2022-11-10T04:36:12.604Z,96796.28
2022-11-10T04:38:40.738Z,96792.28
2022-11-10T04:41:09.003Z,96789.78
2022-11-10T04:43:37.016Z,96797.66
2022-11-10T04:46:05.871Z,96796.97
2022-11-10T04:48:34.692Z,96806.28
2022-11-10T04:51:06.144Z,96806.53
2022-11-10T04:53:34.315Z,96812.22
2022-11-10T04:56:02.022Z,96803.06
2022-11-10T04:58:29.638Z,96810.41
2022-11-10T05:00:57.198Z,96820.03
2022-11-10T05:03:26.480Z,96821.09
2022-11-10T05:05:54.035Z,96813.97
2022-11-10T05:08:22.958Z,96825.81
2022-11-10T05:10:50.472Z,96818.44
2022-11-10T05:13:18.037Z,96823.66
2022-11-10T05:15:46.467Z,96821.31
2022-11-10T05:18:13.982Z,96818.50
2022-11-10T05:20:41.645Z,96815.56
2022-11-10T05:23:26.796Z,96820.88
2022-11-10T05:25:55.666Z,96823.22
2022-11-10T05:28:23.264Z,96818.28
2022-11-10T05:30:50.850Z,96820.78
2022-11-10T05:33:18.534Z,96823.81
2022-11-10T05:35:46.222Z,96845.28
2022-11-10T05:38:13.734Z,96859.94
2022-11-10T05:40:41.321Z,96868.31
2022-11-10T05:43:11.314Z,96875.31
2022-11-10T05:45:38.835Z,96876.44
2022-11-10T05:48:06.614Z,96875.88
2022-11-10T05:50:34.132Z,96890.41
2022-11-10T05:53:01.653Z,96899.31
2022-11-10T05:55:30.107Z,96892.91
2022-11-10T05:57:58.679Z,96885.59
2022-11-10T06:00:29.040Z,96888.63
2022-11-10T06:03:02.287Z,96897.47
2022-11-10T06:05:31.450Z,96895.59
2022-11-10T06:08:00.030Z,96902.19
2022-11-10T06:10:27.627Z,96899.34
2022-11-10T06:12:55.711Z,96912.41
2022-11-10T06:15:23.334Z,96916.97
2022-11-10T06:17:52.724Z,96919.59
2022-11-10T06:20:20.414Z,96940.06
2022-11-10T06:22:59.976Z,96941.47
2022-11-10T06:25:28.177Z,96941.72
2022-11-10T06:27:55.738Z,96946.00
2022-11-10T06:30:23.706Z,96965.06
2022-11-10T06:32:52.825Z,96981.31
2022-11-10T06:35:20.929Z,96988.13
2022-11-10T06:37:58.330Z,96987.72
2022-11-10T06:40:26.165Z,96995.72
2022-11-10T06:42:53.838Z,97003.06
2022-11-10T06:45:21.485Z,97010.03
2022-11-10T06:47:49.142Z,97020.56
2022-11-10T06:50:18.095Z,97028.91
2022-11-10T06:52:45.604Z,97033.41
2022-11-10T06:55:13.102Z,97028.97
2022-11-10T06:57:41.045Z,97033.16
2022-11-10T07:00:10.082Z,97036.69
2022-11-10T07:02:37.606Z,97040.81
2022-11-10T07:05:05.576Z,97048.22
2022-11-10T07:07:34.482Z,97040.88
2022-11-10T07:10:06.750Z,97046.72
2022-11-10T07:12:34.774Z,97033.28
2022-11-10T07:15:02.288Z,97023.88
2022-11-10T07:17:29.808Z,97024.69
2022-11-10T07:19:57.327Z,97038.25
2022-11-10T07:22:24.899Z,97043.44
2022-11-10T07:24:53.751Z,97053.72
2022-11-10T07:27:21.286Z,97056.22
2022-11-10T07:29:48.810Z,97054.75
2022-11-10T07:32:16.322Z,97065.50
2022-11-10T07:34:43.840Z,97067.16
2022-11-10T07:37:11.378Z,97070.44
2022-11-10T07:39:38.887Z,97085.44
2022-11-10T07:42:07.808Z,97096.50
2022-11-10T07:44:35.349Z,97102.81
2022-11-10T07:47:02.873Z,97100.03
2022-11-10T07:49:30.395Z,97107.94
2022-11-10T07:51:57.927Z,97106.44
2022-11-10T07:54:25.456Z,97100.97
2022-11-10T07:56:53.635Z,97109.16
2022-11-10T07:59:22.496Z,97118.03
2022-11-10T08:01:50.133Z,97120.44
2022-11-10T08:04:17.777Z,97120.81
2022-11-10T08:06:45.401Z,97123.47
2022-11-10T08:09:12.974Z,97139.25
2022-11-10T08:11:40.640Z,97141.97
2022-11-10T08:14:08.298Z,97148.94
2022-11-10T08:16:37.215Z,97147.84
2022-11-10T08:19:04.927Z,97138.16
2022-11-10T08:21:32.578Z,97143.84
2022-11-10T08:24:00.095Z,97133.00
2022-11-10T08:26:27.663Z,97152.50
2022-11-10T08:28:55.172Z,97144.84
2022-11-10T08:31:23.147Z,97155.03
2022-11-10T08:33:52.155Z,97160.00
2022-11-10T08:36:19.717Z,97163.00
2022-11-10T08:38:47.224Z,97170.00
2022-11-10T08:41:15.811Z,97165.25
2022-11-10T08:43:43.477Z,97167.19
2022-11-10T08:46:11.000Z,97170.09
2022-11-10T08:48:38.503Z,97167.78
2022-11-10T08:51:07.388Z,97172.63
2022-11-10T08:53:34.886Z,97176.88
2022-11-10T08:56:02.414Z,97191.41
2022-11-10T08:58:29.948Z,97199.84
2022-11-10T09:00:57.610Z,97207.63
2022-11-10T09:03:26.582Z,97200.25
2022-11-10T09:05:58.248Z,97205.16
2022-11-10T09:08:28.000Z,97198.88
2022-11-10T09:10:55.581Z,97193.69
2022-11-10T09:13:28.231Z,97202.53
2022-11-10T09:15:57.196Z,97210.34
2022-11-10T09:18:24.715Z,97218.88
2022-11-10T09:20:52.224Z,97219.78
2022-11-10T09:23:20.760Z,97233.50
2022-11-10T09:25:52.671Z,97234.59
2022-11-10T09:28:21.031Z,97235.03
2022-11-10T09:30:49.468Z,97239.59
2022-11-10T09:33:17.624Z,97237.44
2022-11-10T09:35:45.212Z,97236.47
2022-11-10T09:38:12.847Z,97235.25
2022-11-10T09:40:55.533Z,97238.63
2022-11-10T09:43:29.396Z,97233.25
2022-11-10T09:46:01.423Z,97244.22
2022-11-10T09:48:31.659Z,97250.97
2022-11-10T09:51:03.084Z,97251.22
2022-11-10T09:53:35.841Z,97255.41
2022-11-10T09:56:06.658Z,97252.94
2022-11-10T09:58:39.575Z,97255.34
2022-11-10T10:01:18.805Z,97262.81
2022-11-10T10:03:49.887Z,97259.16
2022-11-10T10:06:20.027Z,97265.94
2022-11-10T10:09:01.310Z,97264.31
2022-11-10T10:11:44.278Z,97278.06
2022-11-10T10:14:30.244Z,97276.22
2022-11-10T10:17:05.285Z,97290.28
2022-11-10T10:19:42.549Z,97299.38
2022-11-10T10:22:33.196Z,97310.56
2022-11-10T10:25:04.751Z,97311.94
2022-11-10T10:27:39.511Z,97308.91
2022-11-10T10:30:14.059Z,97306.94
2022-11-10T10:32:42.507Z,97310.56
2022-11-10T10:35:14.196Z,97307.09
2022-11-10T10:37:45.591Z,97310.50
2022-11-10T10:40:17.213Z,97295.25
2022-11-10T10:42:46.459Z,97313.81
2022-11-10T10:45:22.669Z,97312.28
2022-11-10T10:47:52.006Z,97300.41
2022-11-10T10:50:26.775Z,97296.44
2022-11-10T10:53:08.061Z,97288.63
2022-11-10T10:55:36.499Z,97283.16
2022-11-10T10:58:07.511Z,97289.03
2022-11-10T11:00:44.438Z,97290.38
2022-11-10T11:03:20.514Z,97290.94
2022-11-10T11:06:01.343Z,97277.75
2022-11-10T11:08:28.982Z,97279.19
2022-11-10T11:10:56.543Z,97278.66
2022-11-10T11:13:29.987Z,97275.31
2022-11-10T11:15:58.734Z,97269.41
2022-11-10T11:18:28.103Z,97274.38
2022-11-10T11:21:01.862Z,97275.22
2022-11-10T11:23:47.790Z,97279.72
2022-11-10T11:26:20.891Z,97276.63
2022-11-10T11:28:58.363Z,97282.41
2022-11-10T11:31:42.727Z,97287.47
2022-11-10T11:34:18.401Z,97296.81
2022-11-10T11:36:54.292Z,97298.81
2022-11-10T11:39:35.111Z,97295.81
2022-11-10T11:42:15.708Z,97303.84
2022-11-10T11:45:00.731Z,97312.16
2022-11-10T11:47:41.038Z,97305.56
2022-11-10T11:50:17.711Z,97310.56
2022-11-10T11:52:58.646Z,97308.69
2022-11-10T11:55:37.751Z,97297.41
2022-11-10T11:58:23.759Z,97303.13
2022-11-10T12:01:00.767Z,97296.97
2022-11-10T12:03:49.152Z,97293.47
2022-11-10T12:06:40.425Z,97290.22
2022-11-10T12:09:18.612Z,97281.78
2022-11-10T12:12:02.377Z,97278.53
2022-11-10T12:14:42.427Z,97268.00
2022-11-10T12:17:21.160Z,97263.78
2022-11-10T12:19:58.240Z,97263.16
2022-11-10T12:22:36.141Z,97280.19
2022-11-10T12:25:19.775Z,97273.03
2022-11-10T12:27:53.616Z,97273.09
2022-11-10T12:30:21.155Z,97275.91
2022-11-10T12:32:56.113Z,97280.91
2022-11-10T12:35:27.212Z,97276.06
2022-11-10T12:38:00.042Z,97287.91
2022-11-10T12:40:32.983Z,97280.59
2022-11-10T12:43:02.040Z,97284.44
2022-11-10T12:45:34.729Z,97283.91
2022-11-10T12:48:05.495Z,97291.00
2022-11-10T12:50:43.078Z,97288.97
2022-11-10T12:53:18.346Z,97290.63
2022-11-10T12:55:50.278Z,97290.66
2022-11-10T12:58:19.938Z,97289.81
2022-11-10T13:00:57.457Z,97301.72
2022-11-10T13:03:29.131Z,97304.50
2022-11-10T13:05:59.949Z,97299.44
2022-11-10T13:08:32.823Z,97297.19
2022-11-10T13:11:05.433Z,97304.09
2022-11-10T13:13:42.582Z,97286.13
2022-11-10T13:16:11.515Z,97283.63
2022-11-10T13:19:01.836Z,97298.59
2022-11-10T13:22:09.912Z,97285.09
2022-11-10T13:24:39.240Z,97285.91
2022-11-10T13:27:12.208Z,97292.44
2022-11-10T13:29:56.701Z,97295.34
2022-11-10T13:32:30.116Z,97286.78
2022-11-10T13:35:40.536Z,97304.50
2022-11-10T13:38:34.216Z,97312.53
2022-11-10T13:41:24.643Z,97314.38
2022-11-10T13:43:54.255Z,97317.09
2022-11-10T13:46:32.215Z,97321.13
2022-11-10T13:49:31.279Z,97337.47
2022-11-10T13:52:09.545Z,97335.81
2022-11-10T13:55:16.518Z,97335.34
2022-11-10T13:57:59.688Z,97332.22
2022-11-10T14:00:29.954Z,97330.47
2022-11-10T14:02:58.789Z,97335.19
2022-11-10T14:06:04.866Z,97340.94
2022-11-10T14:08:41.023Z,97346.03
2022-11-10T14:11:17.020Z,97354.16
2022-11-10T14:13:50.530Z,97352.13
2022-11-10T14:16:23.139Z,97358.38
2022-11-10T14:18:56.606Z,97345.59
2022-11-10T14:21:33.059Z,97350.66
2022-11-10T14:24:10.678Z,97351.50
2022-11-10T14:26:42.768Z,97350.09
2022-11-10T14:29:21.725Z,97352.09
2022-11-10T14:31:49.415Z,97354.69
2022-11-10T14:34:18.712Z,97355.91
2022-11-10T14:36:54.811Z,97355.78
2022-11-10T14:39:29.092Z,97356.66
2022-11-10T14:41:58.614Z,97357.44
2022-11-10T14:44:28.319Z,97357.44
2022-11-10T14:46:56.291Z,97361.00
2022-11-10T14:49:25.732Z,97353.78
2022-11-10T14:51:58.632Z,97351.09
2022-11-10T14:54:28.799Z,97354.56
2022-11-10T14:56:57.372Z,97362.41
2022-11-10T14:59:26.474Z,97367.16
2022-11-10T15:01:57.057Z,97374.06
2022-11-10T15:04:29.521Z,97385.47
2022-11-10T15:06:58.437Z,97377.97
2022-11-10T15:09:30.380Z,97383.63
2022-11-10T15:12:19.286Z,97387.75
2022-11-10T15:14:48.013Z,97390.50
2022-11-10T15:17:17.800Z,97399.31
2022-11-10T15:20:01.259Z,97408.13
2022-11-10T15:22:31.209Z,97411.66
2022-11-10T15:25:02.518Z,97415.69
2022-11-10T15:27:32.497Z,97417.59
2022-11-10T15:30:02.288Z,97421.53
2022-11-10T15:32:35.915Z,97423.47
2022-11-10T15:35:12.016Z,97426.19
2022-11-10T15:37:39.584Z,97422.72
2022-11-10T15:40:31.488Z,97428.44
2022-11-10T15:43:28.920Z,97424.47
2022-11-10T15:46:00.445Z,97442.75
2022-11-10T15:48:36.856Z,97435.09
2022-11-10T15:51:04.840Z,97449.03
2022-11-10T15:53:34.309Z,97439.94
2022-11-10T15:56:03.230Z,97444.31
2022-11-10T15:58:30.863Z,97451.59
2022-11-10T16:00:58.433Z,97451.34
2022-11-10T16:03:27.689Z,97455.53
2022-11-10T16:05:55.277Z,97455.13
2022-11-10T16:08:24.109Z,97458.31
2022-11-10T16:10:54.967Z,97465.44
2022-11-10T16:13:26.308Z,97467.78
2022-11-10T16:15:54.403Z,97466.78
2022-11-10T16:18:23.868Z,97463.84
2022-11-10T16:20:53.147Z,97462.00
2022-11-10T16:23:21.285Z,97459.03
2022-11-10T16:25:51.467Z,97454.56
2022-11-10T16:28:22.083Z,97468.41
2022-11-10T16:30:51.363Z,97467.69
2022-11-10T16:33:20.779Z,97470.72
2022-11-10T16:35:51.176Z,97477.72
2022-11-10T16:38:21.788Z,97474.88
2022-11-10T16:40:54.043Z,97483.84
2022-11-10T16:43:22.188Z,97485.13
2022-11-10T16:45:53.742Z,97485.00
2022-11-10T16:48:24.108Z,97476.97
2022-11-10T16:50:53.581Z,97483.91
2022-11-10T16:53:23.578Z,97493.72
2022-11-10T16:55:51.189Z,97502.47
2022-11-10T16:58:18.758Z,97517.88
2022-11-10T17:00:47.918Z,97512.72
2022-11-10T17:03:18.830Z,97506.97
2022-11-10T17:05:46.552Z,97510.78
2022-11-10T17:08:22.117Z,97506.13
2022-11-10T17:10:49.926Z,97512.47
2022-11-10T17:13:17.918Z,97503.47
2022-11-10T17:15:47.195Z,97514.06
2022-11-10T17:18:19.670Z,97513.56
2022-11-10T17:20:50.326Z,97517.16
2022-11-10T17:23:22.473Z,97514.66
2022-11-10T17:25:51.332Z,97524.47
2022-11-10T17:28:19.791Z,97522.97
2022-11-10T17:30:47.382Z,97525.91
2022-11-10T17:33:15.161Z,97533.66
2022-11-10T17:35:47.242Z,97526.94
2022-11-10T17:38:21.334Z,97537.56
2022-11-10T17:40:49.101Z,97531.53
2022-11-10T17:43:16.982Z,97541.72
2022-11-10T17:45:44.628Z,97536.41
2022-11-10T17:48:12.206Z,97539.75
2022-11-10T17:50:42.283Z,97545.56
2022-11-10T17:53:18.784Z,97554.81
2022-11-10T17:55:47.858Z,97551.78
2022-11-10T17:58:15.879Z,97558.03
2022-11-10T18:00:43.447Z,97556.16
2022-11-10T18:03:15.083Z,97555.19
2022-11-10T18:05:43.305Z,97559.03
2022-11-10T18:08:13.380Z,97566.03
2022-11-10T18:10:43.062Z,97563.25
2022-11-10T18:13:11.225Z,97554.38
2022-11-10T18:15:42.734Z,97557.13
2022-11-10T18:18:12.567Z,97555.66
2022-11-10T18:20:40.547Z,97554.81
2022-11-10T18:23:11.375Z,97559.31
2022-11-10T18:25:41.392Z,97550.63
2022-11-10T18:28:09.945Z,97542.69
2022-11-10T18:30:38.772Z,97543.66
2022-11-10T18:33:07.033Z,97552.06
2022-11-10T18:35:37.754Z,97555.22
2022-11-10T18:38:06.154Z,97549.69
2022-11-10T18:40:33.763Z,97552.91
2022-11-10T18:43:07.130Z,97556.16
2022-11-10T18:45:36.643Z,97559.41
2022-11-10T18:48:04.994Z,97559.41
2022-11-10T18:50:32.676Z,97562.03
2022-11-10T18:53:00.483Z,97561.81
2022-11-10T18:55:28.016Z,97562.66
2022-11-10T18:57:55.560Z,97559.28
2022-11-10T19:00:24.751Z,97558.56
2022-11-10T19:02:52.284Z,97568.19
2022-11-10T19:05:19.811Z,97556.16
2022-11-10T19:07:47.355Z,97555.22
2022-11-10T19:10:14.908Z,97567.25
2022-11-10T19:12:42.449Z,97565.44
2022-11-10T19:15:10.167Z,97563.16
2022-11-10T19:17:39.070Z,97569.38
2022-11-10T19:20:08.970Z,97575.28
2022-11-10T19:22:36.513Z,97588.34
2022-11-10T19:25:08.514Z,97597.09
2022-11-10T19:27:36.899Z,97601.53
2022-11-10T19:30:05.261Z,97609.53
2022-11-10T19:32:33.170Z,97601.16
2022-11-10T19:35:03.720Z,97609.72
2022-11-10T19:37:34.827Z,97611.31
2022-11-10T19:40:02.735Z,97617.91
2022-11-10T19:42:30.593Z,97620.50
2022-11-10T19:44:58.795Z,97624.59
2022-11-10T19:47:26.616Z,97625.16
2022-11-10T19:49:54.121Z,97637.75
2022-11-10T19:52:22.987Z,97624.88
2022-11-10T19:54:50.473Z,97633.78
2022-11-10T19:57:17.998Z,97639.72
2022-11-10T19:59:45.495Z,97643.31
2022-11-10T20:02:13.637Z,97643.53
2022-11-10T20:05:01.315Z,97649.41
2022-11-10T20:07:48.027Z,97644.13
2022-11-10T20:10:15.656Z,97650.66
2022-11-10T20:12:43.207Z,97643.16
2022-11-10T20:15:11.687Z,97646.22
2022-11-10T20:17:39.274Z,97647.97
2022-11-10T20:20:07.718Z,97651.78
2022-11-10T20:22:36.596Z,97649.50
2022-11-10T20:25:04.565Z,97668.75
2022-11-10T20:27:32.364Z,97669.88
2022-11-10T20:29:59.988Z,97674.44
2022-11-10T20:32:28.444Z,97672.53
2022-11-10T20:34:55.991Z,97670.44
2022-11-10T20:37:23.893Z,97671.78
2022-11-10T20:39:52.836Z,97664.03
2022-11-10T20:42:20.343Z,97656.72
2022-11-10T20:44:47.928Z,97660.22
2022-11-10T20:47:15.524Z,97662.28
2022-11-10T20:49:43.171Z,97670.66
2022-11-10T20:52:10.719Z,97673.25
2022-11-10T20:54:38.267Z,97672.53
2022-11-10T20:57:07.205Z,97664.94
2022-11-10T20:59:34.761Z,97673.91
2022-11-10T21:02:02.358Z,97667.03
2022-11-10T21:04:29.979Z,97663.03
2022-11-10T21:06:57.699Z,97655.31
2022-11-10T21:09:26.895Z,97656.34
2022-11-10T21:12:12.096Z,97657.53
2022-11-10T21:14:41.008Z,97662.50
2022-11-10T21:17:08.531Z,97657.69
2022-11-10T21:19:36.812Z,97654.19
2022-11-10T21:22:04.360Z,97663.28
2022-11-10T21:24:31.901Z,97671.19
2022-11-10T21:26:59.738Z,97673.09
2022-11-10T21:29:27.242Z,97665.75
2022-11-10T21:31:56.111Z,97667.72
2022-11-10T21:34:23.607Z,97660.00
2022-11-10T21:36:51.147Z,97662.75
2022-11-10T21:39:18.682Z,97647.94
2022-11-10T21:41:46.205Z,97653.66
2022-11-10T21:44:13.709Z,97665.94
2022-11-10T21:46:41.232Z,97674.59
2022-11-10T21:49:10.117Z,97672.19
2022-11-10T21:51:37.714Z,97672.06
2022-11-10T21:54:05.479Z,97675.44
2022-11-10T21:56:33.027Z,97672.38
2022-11-10T21:59:00.802Z,97676.00
2022-11-10T22:01:28.913Z,97674.72
2022-11-10T22:03:56.490Z,97671.66
2022-11-10T22:06:45.408Z,97680.81
2022-11-10T22:09:13.102Z,97678.50
2022-11-10T22:11:58.446Z,97670.59
2022-11-10T22:14:43.686Z,97674.38
2022-11-10T22:17:33.606Z,97676.59
2022-11-10T22:20:01.147Z,97672.38
2022-11-10T22:22:30.005Z,97681.78
2022-11-10T22:24:57.521Z,97689.38
2022-11-10T22:27:25.023Z,97688.75
2022-11-10T22:29:52.579Z,97685.38
2022-11-10T22:32:20.088Z,97679.06
2022-11-10T22:34:47.715Z,97675.25
2022-11-10T22:37:15.191Z,97678.19
2022-11-10T22:40:01.718Z,97681.88
2022-11-10T22:42:46.856Z,97679.44
2022-11-10T22:45:14.556Z,97686.00
2022-11-10T22:47:58.803Z,97681.97
2022-11-10T22:50:26.334Z,97675.59
2022-11-10T22:52:53.835Z,97680.53
2022-11-10T22:55:22.730Z,97679.13
2022-11-10T22:57:52.859Z,97680.94
2022-11-10T23:00:21.006Z,97674.59
2022-11-10T23:02:48.587Z,97677.78
2022-11-10T23:05:16.220Z,97677.56
2022-11-10T23:07:43.739Z,97670.56
2022-11-10T23:10:11.291Z,97668.78
2022-11-10T23:12:40.152Z,97667.03
2022-11-10T23:15:08.614Z,97671.03
2022-11-10T23:17:36.123Z,97672.53
2022-11-10T23:20:03.909Z,97678.25
2022-11-10T23:22:31.404Z,97680.34
2022-11-10T23:24:58.921Z,97688.75
2022-11-10T23:27:26.441Z,97685.38
2022-11-10T23:29:55.331Z,97693.09
2022-11-10T23:32:22.921Z,97694.03
2022-11-10T23:34:50.445Z,97693.28
2022-11-10T23:37:18.469Z,97693.28
2022-11-10T23:39:46.365Z,97700.66
2022-11-10T23:42:13.940Z,97697.41
2022-11-10T23:44:41.485Z,97688.59
2022-11-10T23:47:10.349Z,97696.53
2022-11-10T23:49:37.956Z,97699.03
2022-11-10T23:52:05.523Z,97699.09
2022-11-10T23:54:33.047Z,97692.69
2022-11-10T23:57:00.566Z,97693.28
2022-11-10T23:59:28.078Z,97685.22
